Time;durP1;ratioP1;P1;durP2;ratioP2;P2;SDS_P1;SDS_P2;PMS_P1;PMS_P2;Temp;Humidity;BMP_temperature;BMP_pressure;BME280_temperature;BME280_humidity;BME280_pressure;Samples;Min_cycle;Max_cycle;Signal;HPM_P1;HPM_P2
2021/03/08 00:00:17;;;;;;;25.45;11.05;;;;;;;0.59;70.05;98789.06;1741161;80;21496;-74
2021/03/08 00:02:46;;;;;;;20.95;12.00;;;;;;;0.59;70.01;98797.16;1727339;81;21910;-74
2021/03/08 00:05:14;;;;;;;20.70;12.65;;;;;;;0.58;70.05;98788.25;1750362;82;21138;-74
2021/03/08 00:07:43;;;;;;;20.90;11.05;;;;;;;0.60;69.99;98794.19;1730269;81;21204;-76
2021/03/08 00:10:13;;;;;;;19.85;11.48;;;;;;;0.59;69.89;98785.01;1666947;83;21528;-74
2021/03/08 00:12:43;;;;;;;23.90;12.50;;;;;;;0.58;70.24;98785.55;1717233;83;21476;-74
2021/03/08 00:15:13;;;;;;;23.60;13.13;;;;;;;0.58;70.21;98780.69;1717245;83;21060;-75
2021/03/08 00:17:41;;;;;;;22.67;13.35;;;;;;;0.57;70.16;98777.20;1717270;83;21183;-75
2021/03/08 00:20:12;;;;;;;22.77;13.28;;;;;;;0.57;70.19;98779.09;1727255;80;21199;-75
2021/03/08 00:22:42;;;;;;;21.80;12.13;;;;;;;0.56;70.64;98766.13;1751411;80;21075;-73
2021/03/08 00:25:24;;;;;;;22.42;12.05;;;;;;;0.56;70.44;98772.07;1750277;80;21005;-75
2021/03/08 00:27:52;;;;;;;24.43;12.67;;;;;;;0.55;70.31;98764.51;1750070;82;21629;-74
2021/03/08 00:30:21;;;;;;;17.55;10.95;;;;;;;0.54;70.27;98760.19;1750243;82;21491;-74
2021/03/08 00:32:49;;;;;;;23.18;13.45;;;;;;;0.53;70.47;98746.41;1750199;82;22279;-73
2021/03/08 00:35:17;;;;;;;22.17;12.73;;;;;;;0.53;70.43;98753.16;1750202;82;21139;-72
2021/03/08 00:37:45;;;;;;;20.45;12.45;;;;;;;0.52;70.54;98746.68;1750181;82;21574;-73
2021/03/08 00:40:16;;;;;;;21.12;12.13;;;;;;;0.50;70.58;98742.09;1750100;80;21195;-73
2021/03/08 00:42:44;;;;;;;23.40;12.75;;;;;;;0.47;70.76;98744.79;1750512;82;21531;-72
2021/03/08 00:45:17;;;;;;;23.85;13.15;;;;;;;0.44;70.72;98737.23;1750321;82;22150;-72
2021/03/08 00:47:46;;;;;;;20.72;12.07;;;;;;;0.44;70.84;98734.52;1750154;82;21167;-72
2021/03/08 00:50:18;;;;;;;28.52;14.10;;;;;;;0.44;71.03;98731.83;1750321;82;20942;-73
2021/03/08 00:52:46;;;;;;;28.17;14.25;;;;;;;0.42;70.96;98733.98;1750227;82;21230;-73
2021/03/08 00:55:14;;;;;;;30.08;15.03;;;;;;;0.40;70.93;98726.69;1750400;82;21583;-73
2021/03/08 00:57:43;;;;;;;24.12;13.20;;;;;;;0.38;71.04;98728.84;1750440;82;21323;-72
2021/03/08 01:00:14;;;;;;;27.95;13.78;;;;;;;0.37;71.29;98722.38;1750311;82;20997;-72
2021/03/08 01:02:45;;;;;;;38.58;17.20;;;;;;;0.36;71.29;98726.95;1750446;80;21562;-74
2021/03/08 01:05:16;;;;;;;25.05;13.83;;;;;;;0.35;71.33;98711.84;1750415;82;21188;-75
2021/03/08 01:07:44;;;;;;;22.55;13.18;;;;;;;0.33;71.48;98713.45;1749936;81;21163;-75
2021/03/08 01:10:20;;;;;;;23.27;12.47;;;;;;;0.33;71.45;98719.39;1750592;82;21422;-76
2021/03/08 01:12:47;;;;;;;26.23;14.23;;;;;;;0.30;71.50;98716.69;1750365;80;21167;-75
2021/03/08 01:15:17;;;;;;;25.77;13.75;;;;;;;0.28;71.68;98702.66;1750200;82;21151;-75
2021/03/08 01:17:45;;;;;;;26.40;14.03;;;;;;;0.26;71.78;98708.05;1750384;82;21095;-76
2021/03/08 01:20:17;;;;;;;28.77;15.53;;;;;;;0.26;71.89;98704.81;1750405;81;21230;-75
2021/03/08 01:22:46;;;;;;;24.35;14.00;;;;;;;0.24;71.79;98696.71;1771382;80;21151;-75
2021/03/08 01:25:23;;;;;;;21.55;12.75;;;;;;;0.22;71.85;98692.93;1789938;79;21022;-76
2021/03/08 01:27:50;;;;;;;22.73;12.35;;;;;;;0.20;71.95;98688.34;1789795;79;21093;-76
2021/03/08 01:30:21;;;;;;;25.80;13.25;;;;;;;0.19;71.92;98688.07;1789789;80;21124;-77
2021/03/08 01:32:50;;;;;;;22.07;13.00;;;;;;;0.19;71.94;98679.97;1790118;79;21137;-75
2021/03/08 01:35:17;;;;;;;26.85;13.53;;;;;;;0.18;71.96;98685.64;1789919;80;22322;-76
2021/03/08 01:37:45;;;;;;;24.07;13.98;;;;;;;0.17;72.14;98681.32;1789693;80;21005;-75
2021/03/08 01:40:14;;;;;;;21.65;12.25;;;;;;;0.17;72.05;98679.97;1789988;79;20927;-75
2021/03/08 01:42:42;;;;;;;26.90;13.50;;;;;;;0.17;71.98;98684.83;1789625;80;21062;-76
2021/03/08 01:45:13;;;;;;;23.95;13.85;;;;;;;0.16;71.92;98685.91;1789906;80;21576;-75
2021/03/08 01:47:42;;;;;;;22.60;12.95;;;;;;;0.17;71.73;98686.17;1789784;79;21356;-75
2021/03/08 01:50:33;;;;;;;20.95;12.95;;;;;;;0.16;71.63;98685.91;1789778;79;21093;-75
2021/03/08 01:53:02;;;;;;;22.77;13.03;;;;;;;0.16;71.79;98684.56;1789772;80;21053;-76
2021/03/08 01:55:30;;;;;;;23.05;13.15;;;;;;;0.16;71.93;98685.91;1789692;80;21054;-75
2021/03/08 01:57:58;;;;;;;23.85;12.23;;;;;;;0.16;71.63;98685.09;1790011;80;21057;-76
2021/03/08 02:00:27;;;;;;;24.52;13.03;;;;;;;0.16;71.56;98691.84;1790005;80;22763;-75
2021/03/08 02:02:55;;;;;;;24.45;13.68;;;;;;;0.14;71.60;98684.55;1789716;80;21029;-76
2021/03/08 02:05:29;;;;;;;26.55;13.78;;;;;;;0.13;71.96;98685.63;1789864;78;21204;-75
2021/03/08 02:07:56;;;;;;;23.52;12.85;;;;;;;0.13;71.84;98686.98;1789644;79;21600;-76
2021/03/08 02:10:28;;;;;;;20.48;12.78;;;;;;;0.12;71.87;98681.31;1789927;80;21112;-76
2021/03/08 02:13:26;;;;;;;26.10;13.65;;;;;;;0.09;72.10;98685.90;1769918;80;21376;-75
2021/03/08 02:16:11;;;;;;;24.92;14.20;;;;;;;0.07;72.17;98683.47;1789707;80;21533;-74
2021/03/08 02:19:07;;;;;;;23.98;13.15;;;;;;;0.05;72.24;98686.16;1790025;80;21457;-76
2021/03/08 02:22:08;;;;;;;27.20;13.88;;;;;;;0.03;72.31;98680.22;1747723;79;21148;-75
2021/03/08 02:25:31;;;;;;;25.88;13.80;;;;;;;-0.01;72.51;98687.53;1703223;84;21567;-75
2021/03/08 02:28:30;;;;;;;;;;;;;;;-0.04;72.61;98685.38;1792509;80;21200;-75
2021/03/08 02:31:00;;;;;;;31.55;12.88;;;;;;;-0.08;72.74;98685.63;1789757;80;20165;-76
2021/03/08 02:33:31;;;;;;;24.13;13.00;;;;;;;-0.10;72.90;98680.23;1781508;80;21088;-72
2021/03/08 02:36:03;;;;;;;25.35;13.95;;;;;;;-0.11;72.93;98685.36;1751299;80;21077;-73
2021/03/08 02:38:34;;;;;;;28.47;13.45;;;;;;;-0.12;73.10;98687.24;1790082;80;21064;-73
2021/03/08 02:41:08;;;;;;;23.27;12.80;;;;;;;-0.13;73.12;98678.88;1789805;79;21375;-74
2021/03/08 02:43:39;;;;;;;23.18;12.73;;;;;;;-0.13;73.22;98681.58;1789538;80;20982;-74
2021/03/08 02:46:28;;;;;;;23.02;12.45;;;;;;;-0.13;73.27;98681.58;1790003;79;21108;-74
2021/03/08 02:49:00;;;;;;;24.85;12.78;;;;;;;-0.14;73.31;98679.14;1789911;80;21117;-75
2021/03/08 02:51:29;;;;;;;23.80;12.68;;;;;;;-0.15;73.35;98679.69;1789927;80;21046;-74
2021/03/08 02:53:59;;;;;;;20.88;12.85;;;;;;;-0.16;73.30;98678.59;1790001;80;22270;-75
2021/03/08 02:56:33;;;;;;;21.00;12.43;;;;;;;-0.17;73.38;98682.37;1770129;80;21026;-75
2021/03/08 02:59:04;;;;;;;24.25;12.93;;;;;;;-0.17;73.60;98683.72;1789745;80;21462;-76
2021/03/08 03:01:34;;;;;;;21.85;12.85;;;;;;;-0.18;73.44;98680.22;1789893;79;21132;-75
2021/03/08 03:04:03;;;;;;;24.47;13.53;;;;;;;-0.19;73.56;98683.98;1789773;78;21192;-75
2021/03/08 03:06:33;;;;;;;21.37;12.05;;;;;;;-0.20;73.62;98675.63;1770042;80;22118;-75
2021/03/08 03:09:10;;;;;;;23.38;12.93;;;;;;;-0.21;73.70;98675.35;1797092;79;21488;-75
2021/03/08 03:11:40;;;;;;;27.82;13.50;;;;;;;-0.19;73.75;98677.78;1798575;79;21072;-75
2021/03/08 03:14:08;;;;;;;25.70;14.10;;;;;;;-0.20;73.74;98674.28;1798794;79;21056;-75
2021/03/08 03:16:37;;;;;;;27.93;14.80;;;;;;;-0.19;73.78;98676.44;1798814;79;21104;-75
2021/03/08 03:19:05;;;;;;;23.90;13.90;;;;;;;-0.18;73.79;98673.47;1795117;79;21991;-75
2021/03/08 03:21:34;;;;;;;26.07;13.85;;;;;;;-0.17;73.69;98672.94;1736070;81;21060;-75
2021/03/08 03:24:02;;;;;;;23.60;13.32;;;;;;;-0.16;73.69;98675.91;1731054;82;21132;-74
2021/03/08 03:26:31;;;;;;;24.90;13.65;;;;;;;-0.17;74.29;98679.14;1730780;81;21243;-74
2021/03/08 03:28:59;;;;;;;25.23;14.13;;;;;;;-0.17;73.90;98679.14;1730864;82;21191;-74
2021/03/08 03:31:29;;;;;;;28.62;14.35;;;;;;;-0.16;73.93;98682.64;1730937;82;21410;-73
2021/03/08 03:33:57;;;;;;;26.62;13.70;;;;;;;-0.18;74.08;98674.82;1731419;81;21600;-74
2021/03/08 03:36:25;;;;;;;25.75;14.10;;;;;;;-0.17;74.01;98683.19;1731425;82;21037;-74
2021/03/08 03:38:53;;;;;;;31.97;15.48;;;;;;;-0.17;74.05;98669.70;1731423;81;21159;-74
2021/03/08 03:41:21;;;;;;;28.50;14.63;;;;;;;-0.16;74.09;98670.51;1731416;82;21508;-73
2021/03/08 03:43:48;;;;;;;24.70;13.98;;;;;;;-0.17;74.22;98680.48;1731476;82;21198;-74
2021/03/08 03:46:16;;;;;;;31.52;15.55;;;;;;;-0.17;74.19;98672.94;1731379;82;21159;-73
2021/03/08 03:48:44;;;;;;;26.62;14.38;;;;;;;-0.19;74.20;98670.50;1731883;80;20958;-75
2021/03/08 03:51:11;;;;;;;22.93;13.05;;;;;;;-0.18;74.58;98672.66;1765155;80;21045;-75
2021/03/08 03:53:40;;;;;;;28.83;15.32;;;;;;;-0.19;74.36;98678.59;1765025;81;21479;-76
2021/03/08 03:56:11;;;;;;;30.65;15.83;;;;;;;-0.19;74.22;98676.44;1765252;80;22269;-75
2021/03/08 03:58:53;;;;;;;29.32;15.65;;;;;;;-0.21;74.26;98676.70;1700235;84;21529;-76
2021/03/08 04:01:34;;;;;;;24.55;14.25;;;;;;;-0.23;74.34;98672.11;1700528;84;21538;-76
2021/03/08 04:04:06;;;;;;;28.15;14.65;;;;;;;-0.25;74.42;98667.52;1700467;83;21078;-77
2021/03/08 04:06:37;;;;;;;29.45;14.33;;;;;;;-0.26;74.59;98671.30;1700305;83;21228;-76
2021/03/08 04:09:05;;;;;;;30.55;15.68;;;;;;;-0.27;74.70;98666.98;1711119;82;21427;-76
2021/03/08 04:11:35;;;;;;;28.70;13.68;;;;;;;-0.27;74.99;98664.28;1704839;84;21208;-73
2021/03/08 04:14:03;;;;;;;29.48;15.43;;;;;;;-0.26;75.00;98671.83;1684697;84;21081;-73
2021/03/08 04:16:30;;;;;;;27.77;15.08;;;;;;;-0.27;75.06;98673.72;1704888;84;22041;-72
2021/03/08 04:18:58;;;;;;;24.55;14.70;;;;;;;-0.27;75.14;98669.67;1705058;84;21069;-73
2021/03/08 04:21:29;;;;;;;29.98;14.38;;;;;;;-0.27;75.27;98663.47;1662540;84;21287;-73
2021/03/08 04:23:57;;;;;;;31.55;15.28;;;;;;;-0.26;75.28;98663.74;1705138;84;21584;-74
2021/03/08 04:26:24;;;;;;;28.38;15.00;;;;;;;-0.27;75.31;98660.23;1705126;84;21172;-74
2021/03/08 04:28:52;;;;;;;33.38;15.13;;;;;;;-0.27;75.51;98666.98;1705268;84;20945;-74
2021/03/08 04:31:20;;;;;;;27.90;13.75;;;;;;;-0.25;75.46;98658.62;1705271;84;20960;-74
2021/03/08 04:33:48;;;;;;;28.75;14.93;;;;;;;-0.26;75.42;98657.00;1705279;84;21198;-75
2021/03/08 04:36:15;;;;;;;29.72;14.55;;;;;;;-0.25;75.42;98667.52;1705250;84;21588;-76
2021/03/08 04:38:43;;;;;;;30.45;14.63;;;;;;;-0.25;75.53;98666.17;1705297;84;21033;-75
2021/03/08 04:41:10;;;;;;;27.60;15.25;;;;;;;-0.24;75.49;98665.63;1705236;84;21089;-75
2021/03/08 04:43:39;;;;;;;31.02;14.85;;;;;;;-0.23;75.54;98670.77;1705410;84;21504;-74
2021/03/08 04:46:06;;;;;;;25.88;13.95;;;;;;;-0.23;75.61;98668.61;1705296;84;21210;-74
2021/03/08 04:48:35;;;;;;;28.73;14.83;;;;;;;-0.24;75.70;98669.14;1705262;84;21974;-75
2021/03/08 04:51:06;;;;;;;27.05;14.90;;;;;;;-0.23;75.73;98676.16;1705358;84;21482;-75
2021/03/08 04:53:35;;;;;;;22.47;14.23;;;;;;;-0.22;75.75;98679.66;1705620;84;21583;-75
2021/03/08 04:56:03;;;;;;;27.85;15.00;;;;;;;-0.21;76.01;98681.28;1705306;84;20963;-75
2021/03/08 04:58:31;;;;;;;29.18;16.07;;;;;;;-0.21;76.24;98681.28;1705254;82;21217;-74
2021/03/08 05:00:59;;;;;;;26.75;14.93;;;;;;;-0.22;76.40;98679.12;1705262;82;21003;-74
2021/03/08 05:03:27;;;;;;;27.22;14.43;;;;;;;-0.23;76.72;98678.86;1705268;84;21001;-74
2021/03/08 05:05:56;;;;;;;27.35;15.35;;;;;;;-0.23;76.72;98668.61;1705265;84;21121;-74
2021/03/08 05:08:24;;;;;;;29.20;14.65;;;;;;;-0.23;76.72;98670.77;1712821;82;21556;-73
2021/03/08 05:10:51;;;;;;;25.52;15.05;;;;;;;-0.23;76.80;98672.65;1731427;82;21382;-75
2021/03/08 05:13:20;;;;;;;29.55;15.80;;;;;;;-0.22;76.80;98670.23;1731435;82;20965;-75
2021/03/08 05:15:48;;;;;;;26.23;14.40;;;;;;;-0.22;77.12;98671.03;1731527;81;21565;-76
2021/03/08 05:18:16;;;;;;;26.37;14.98;;;;;;;-0.20;77.11;98678.86;1731422;82;21013;-75
2021/03/08 05:20:45;;;;;;;27.52;14.98;;;;;;;-0.18;77.08;98677.52;1706686;82;21147;-73
2021/03/08 05:23:12;;;;;;;28.00;15.05;;;;;;;-0.17;77.25;98676.44;1706740;82;23631;-73
2021/03/08 05:25:40;;;;;;;29.63;15.75;;;;;;;-0.15;77.17;98682.92;1731379;81;21096;-77
2021/03/08 05:28:09;;;;;;;28.40;15.30;;;;;;;-0.16;77.24;98681.30;1731405;82;20958;-74
2021/03/08 05:30:36;;;;;;;28.62;15.18;;;;;;;-0.14;77.26;98681.84;1731416;82;21132;-73
2021/03/08 05:33:22;;;;;;;29.45;15.43;;;;;;;-0.14;77.67;98683.19;1731479;82;21148;-73
2021/03/08 05:35:53;;;;;;;29.85;16.75;;;;;;;-0.13;77.65;98686.16;1731493;82;21160;-74
2021/03/08 05:38:22;;;;;;;28.60;15.65;;;;;;;-0.11;77.64;98688.86;1731381;81;20926;-74
2021/03/08 05:41:18;;;;;;;25.32;13.83;;;;;;;-0.08;77.75;98694.27;1766011;79;20956;-78
2021/03/08 05:43:47;;;;;;;25.17;14.43;;;;;;;-0.07;77.94;98689.95;1767200;80;21136;-82
2021/03/08 05:46:56;;;;;;;30.77;15.60;;;;;;;-0.04;77.98;98693.46;1767593;81;21003;-77
2021/03/08 05:49:55;;;;;;;27.02;14.98;;;;;;;-0.03;78.08;98704.53;1767679;81;21366;-78
2021/03/08 05:52:40;;;;;;;28.87;15.65;;;;;;;0.01;78.21;98708.83;1767588;80;21075;-77
2021/03/08 05:55:23;;;;;;;27.17;14.65;;;;;;;0.00;78.18;98711.28;1767187;81;21551;-77
2021/03/08 05:58:31;;;;;;;30.00;15.08;;;;;;;0.02;78.38;98708.28;1767745;79;21071;-76
2021/03/08 06:01:25;;;;;;;30.15;15.85;;;;;;;0.04;78.56;98708.83;1767682;80;20926;-77
2021/03/08 06:04:18;;;;;;;26.73;14.90;;;;;;;0.06;78.64;98708.02;1767728;80;21239;-76
2021/03/08 06:07:20;;;;;;;26.87;14.68;;;;;;;0.07;78.85;98713.69;1767670;81;20997;-75
2021/03/08 06:10:05;;;;;;;26.10;14.60;;;;;;;0.11;79.07;98709.38;1755772;80;21036;-77
2021/03/08 06:12:40;;;;;;;28.10;15.43;;;;;;;0.13;79.29;98713.97;1760486;81;21049;-76
2021/03/08 06:15:11;;;;;;;29.98;16.32;;;;;;;0.15;79.54;98713.16;1749673;82;20989;-75
2021/03/08 06:17:38;;;;;;;25.92;15.25;;;;;;;0.15;79.69;98724.77;1744927;81;21063;-74
2021/03/08 06:20:07;;;;;;;30.50;16.32;;;;;;;0.17;79.81;98726.66;1761011;81;22294;-75
2021/03/08 06:22:35;;;;;;;28.25;15.63;;;;;;;0.18;79.92;98733.69;1750370;80;21002;-75
2021/03/08 06:25:06;;;;;;;29.07;15.15;;;;;;;0.20;80.37;98736.11;1743898;81;21223;-75
2021/03/08 06:27:34;;;;;;;32.10;15.95;;;;;;;0.20;80.19;98740.98;1751416;81;21637;-76
2021/03/08 06:30:02;;;;;;;28.15;16.25;;;;;;;0.19;80.22;98745.29;1757624;81;22730;-77
2021/03/08 06:32:30;;;;;;;32.28;17.10;;;;;;;0.18;80.85;98754.47;1708208;81;21102;-77
2021/03/08 06:34:58;;;;;;;35.05;15.93;;;;;;;0.16;80.76;98753.92;1757503;81;21133;-77
2021/03/08 06:37:26;;;;;;;34.83;18.23;;;;;;;0.11;80.90;98762.81;1712054;82;21137;-78
2021/03/08 06:39:54;;;;;;;30.10;16.42;;;;;;;0.06;81.20;98767.39;1744505;82;21172;-78
2021/03/08 06:42:22;;;;;;;40.80;19.95;;;;;;;0.03;81.79;98766.57;1745006;81;22684;-77
2021/03/08 06:44:50;;;;;;;23.27;14.15;;;;;;;0.04;82.62;98784.39;1738994;81;20966;-75
2021/03/08 06:47:20;;;;;;;19.62;8.98;;;;;;;0.04;81.54;98784.39;1735824;82;21113;-78
2021/03/08 06:49:48;;;;;;;15.53;8.13;;;;;;;-0.04;79.80;98782.50;1735823;82;21029;-81
2021/03/08 06:52:17;;;;;;;14.60;5.75;;;;;;;-0.09;79.99;98787.88;1735864;82;21161;-79
2021/03/08 06:55:01;;;;;;;11.78;4.78;;;;;;;-0.15;79.06;98788.94;1735858;82;21362;-76
2021/03/08 06:57:30;;;;;;;7.78;4.00;;;;;;;-0.20;77.60;98788.92;1735831;81;21615;-73
2021/03/08 07:00:07;;;;;;;10.13;3.80;;;;;;;-0.27;78.12;98788.89;1735882;82;21088;-74
2021/03/08 07:02:43;;;;;;;8.55;3.42;;;;;;;-0.32;78.28;98786.17;1735071;82;21041;-73
2021/03/08 07:05:29;;;;;;;5.17;2.20;;;;;;;-0.33;77.92;98798.84;1723526;82;21163;-74
2021/03/08 07:07:59;;;;;;;7.70;2.92;;;;;;;-0.35;76.78;98792.36;1703768;84;21641;-74
2021/03/08 07:10:40;;;;;;;4.30;1.70;;;;;;;-0.39;77.26;98791.27;1705837;82;21039;-74
2021/03/08 07:13:10;;;;;;;4.35;1.40;;;;;;;-0.41;75.16;98793.41;1706431;84;21170;-74
2021/03/08 07:15:58;;;;;;;3.08;1.30;;;;;;;-0.49;73.88;98793.91;1707039;84;21555;-73
2021/03/08 07:18:26;;;;;;;4.72;1.82;;;;;;;-0.55;73.55;98799.53;1707019;84;21182;-74
2021/03/08 07:20:56;;;;;;;4.20;1.50;;;;;;;-0.58;71.75;98787.95;1707161;84;22076;-74
2021/03/08 07:23:25;;;;;;;3.75;1.20;;;;;;;-0.59;71.42;98801.16;1704486;84;21179;-74
2021/03/08 07:26:08;;;;;;;6.85;2.08;;;;;;;-0.56;70.62;98798.72;1707695;84;20965;-74
2021/03/08 07:28:36;;;;;;;4.60;1.57;;;;;;;-0.51;70.91;98794.70;1707741;84;21159;-73
2021/03/08 07:31:04;;;;;;;2.55;0.95;;;;;;;-0.43;69.91;98803.64;1707789;82;21076;-74
2021/03/08 07:33:32;;;;;;;4.45;1.10;;;;;;;-0.40;69.28;98798.27;1707714;84;21366;-74
2021/03/08 07:36:00;;;;;;;4.87;1.32;;;;;;;-0.39;69.76;98794.50;1707661;84;21092;-74
2021/03/08 07:38:37;;;;;;;2.27;1.00;;;;;;;-0.36;70.95;98810.97;1707701;83;21001;-74
2021/03/08 07:41:17;;;;;;;4.55;1.60;;;;;;;-0.36;70.37;98812.31;1707641;84;21558;-74
2021/03/08 07:43:47;;;;;;;6.37;2.65;;;;;;;-0.40;70.69;98822.54;1707730;84;21198;-74
2021/03/08 07:46:36;;;;;;;5.95;2.15;;;;;;;-0.44;71.57;98817.39;1707704;84;21386;-74
2021/03/08 07:49:08;;;;;;;7.12;2.92;;;;;;;-0.47;70.19;98813.88;1707709;82;21611;-74
2021/03/08 07:51:36;;;;;;;6.63;2.93;;;;;;;-0.47;70.49;98823.31;1707937;84;21217;-74
2021/03/08 07:54:08;;;;;;;6.92;2.42;;;;;;;-0.47;70.25;98813.88;1707684;84;21626;-74
2021/03/08 07:56:36;;;;;;;3.30;1.50;;;;;;;-0.40;71.01;98817.14;1713800;82;21127;-73
2021/03/08 07:59:04;;;;;;;6.83;2.12;;;;;;;-0.34;67.65;98811.52;1718934;82;21220;-73
2021/03/08 08:01:33;;;;;;;4.45;2.00;;;;;;;-0.29;65.83;98814.77;1714450;83;21572;-74
2021/03/08 08:04:00;;;;;;;6.53;1.75;;;;;;;-0.26;65.30;98814.78;1720500;82;21624;-74
2021/03/08 08:06:28;;;;;;;5.45;1.20;;;;;;;-0.26;64.59;98812.90;1720437;82;21079;-74
2021/03/08 08:08:56;;;;;;;4.22;1.75;;;;;;;-0.21;64.16;98814.27;1723796;82;21038;-79
2021/03/08 08:11:28;;;;;;;3.55;1.22;;;;;;;-0.16;63.16;98814.30;1751976;82;21176;-74
2021/03/08 08:14:04;;;;;;;3.70;1.27;;;;;;;-0.12;62.20;98810.00;1751876;82;21138;-74
2021/03/08 08:16:33;;;;;;;3.70;1.17;;;;;;;-0.12;61.67;98818.09;1751925;82;21077;-74
2021/03/08 08:19:04;;;;;;;2.00;0.95;;;;;;;-0.11;61.46;98818.91;1752006;82;21104;-74
2021/03/08 08:21:37;;;;;;;2.98;1.40;;;;;;;-0.11;62.33;98817.55;1752101;82;20954;-74
2021/03/08 08:24:08;;;;;;;3.85;1.42;;;;;;;-0.07;62.08;98807.32;1753291;80;21373;-74
2021/03/08 08:26:36;;;;;;;3.62;2.02;;;;;;;0.02;62.52;98812.17;1753822;81;21138;-74
2021/03/08 08:29:03;;;;;;;6.05;2.08;;;;;;;0.12;61.18;98813.56;1753480;81;21016;-75
2021/03/08 08:32:06;;;;;;;5.33;1.80;;;;;;;0.18;62.04;98821.41;1753509;81;20940;-74
2021/03/08 08:34:39;;;;;;;8.33;2.40;;;;;;;0.22;61.98;98811.70;1750452;81;21190;-74
2021/03/08 08:37:20;;;;;;;7.72;2.00;;;;;;;0.22;60.23;98819.80;1753484;81;21268;-74
2021/03/08 08:39:56;;;;;;;7.75;2.02;;;;;;;0.21;59.94;98811.97;1753187;81;21043;-75
2021/03/08 08:42:26;;;;;;;6.47;1.90;;;;;;;0.17;59.34;98817.63;1753567;81;21075;-76
2021/03/08 08:44:55;;;;;;;8.30;2.72;;;;;;;0.13;59.29;98816.53;1753517;81;21613;-74
2021/03/08 08:47:32;;;;;;;4.75;1.80;;;;;;;0.07;59.53;98818.41;1753547;81;20940;-73
2021/03/08 08:50:07;;;;;;;8.95;2.62;;;;;;;0.06;60.19;98814.08;1753554;81;21206;-74
2021/03/08 08:52:51;;;;;;;9.43;3.15;;;;;;;0.09;59.87;98818.14;1753501;81;21004;-73
2021/03/08 08:55:22;;;;;;;8.83;2.52;;;;;;;0.13;59.56;98819.23;1753651;81;21475;-73
2021/03/08 08:58:24;;;;;;;6.47;2.37;;;;;;;0.20;59.87;98821.95;1753531;81;21080;-74
2021/03/08 09:01:13;;;;;;;7.35;1.60;;;;;;;0.30;60.10;98820.63;1753462;81;21035;-75
2021/03/08 09:04:07;;;;;;;4.83;1.20;;;;;;;0.42;55.31;98827.14;1741988;81;21668;-74
2021/03/08 09:07:03;;;;;;;6.10;2.08;;;;;;;0.43;54.47;98820.66;1753581;81;21031;-74
2021/03/08 09:09:38;;;;;;;5.90;2.50;;;;;;;0.47;54.42;98820.94;1755976;81;21145;-74
2021/03/08 09:12:09;;;;;;;7.15;2.00;;;;;;;0.58;54.76;98823.91;1762340;81;21146;-74
2021/03/08 09:14:47;;;;;;;6.95;2.40;;;;;;;0.65;54.00;98823.91;1765449;81;21149;-74
2021/03/08 09:17:21;;;;;;;8.40;2.55;;;;;;;0.66;55.22;98828.77;1748241;81;21188;-75
2021/03/08 09:19:58;;;;;;;10.00;3.65;;;;;;;0.74;54.60;98822.03;1765530;81;21573;-74
2021/03/08 09:22:36;;;;;;;7.65;2.47;;;;;;;0.87;55.02;98833.66;1766893;80;21067;-74
2021/03/08 09:25:15;;;;;;;19.42;5.40;;;;;;;1.06;54.37;98842.85;1765457;81;21168;-75
2021/03/08 09:28:10;;;;;;;5.65;2.00;;;;;;;1.33;52.84;98839.30;1873596;76;23219;-76
2021/03/08 09:30:48;;;;;;;5.05;1.57;;;;;;;1.37;51.29;98841.45;1841810;78;20964;-76
2021/03/08 09:33:17;;;;;;;5.53;1.20;;;;;;;1.28;50.87;98839.30;1841713;77;21352;-73
2021/03/08 09:35:52;;;;;;;3.72;1.30;;;;;;;1.23;51.53;98842.55;1841769;77;21031;-73
2021/03/08 09:38:24;;;;;;;5.80;1.50;;;;;;;1.23;51.33;98850.12;1841695;78;20897;-74
2021/03/08 09:40:56;;;;;;;9.40;2.17;;;;;;;1.48;50.04;98848.47;1826690;77;21444;-73
2021/03/08 09:43:35;;;;;;;4.15;1.17;;;;;;;1.99;50.51;98842.35;1808709;78;20888;-73
2021/03/08 09:46:13;;;;;;;8.83;2.37;;;;;;;2.71;47.48;98845.48;1808581;78;21319;-74
2021/03/08 09:48:43;;;;;;;5.97;1.82;;;;;;;3.23;46.00;98841.53;1808700;79;21502;-75
2021/03/08 09:51:17;;;;;;;5.12;1.72;;;;;;;3.61;45.04;98853.91;1808740;78;21471;-75
2021/03/08 09:53:50;;;;;;;4.25;1.37;;;;;;;3.97;43.79;98849.72;1808745;79;21381;-74
2021/03/08 09:56:21;;;;;;;7.30;1.90;;;;;;;4.38;44.09;98833.45;1808618;79;21007;-74
2021/03/08 09:59:03;;;;;;;4.78;1.87;;;;;;;4.73;41.89;98838.91;1779496;79;21372;-75
2021/03/08 10:01:32;;;;;;;3.20;1.50;;;;;;;4.94;41.47;98836.95;1808591;79;21495;-76
2021/03/08 10:04:00;;;;;;;4.90;1.75;;;;;;;5.13;42.06;98842.37;1808683;79;21466;-76
2021/03/08 10:06:31;;;;;;;2.52;0.98;;;;;;;5.27;41.27;98840.47;1804176;79;20948;-76
2021/03/08 10:09:20;;;;;;;2.92;1.50;;;;;;;5.17;41.21;98828.42;1808591;79;20971;-74
2021/03/08 10:11:48;;;;;;;9.00;2.87;;;;;;;5.17;41.21;98828.42;1784676;79;22062;-74
2021/03/08 10:14:23;;;;;;;5.50;1.87;;;;;;;4.94;40.64;98833.42;1808536;79;20983;-75
2021/03/08 10:17:11;;;;;;;1.82;0.82;;;;;;;4.81;41.08;98817.84;1808624;79;21039;-75
2021/03/08 10:19:57;;;;;;;3.95;1.67;;;;;;;4.78;40.55;98823.88;1808596;79;21039;-74
2021/03/08 10:22:35;;;;;;;5.47;1.90;;;;;;;5.16;40.54;98820.56;1808325;79;21150;-74
2021/03/08 10:25:30;;;;;;;3.77;1.37;;;;;;;5.16;40.54;98820.56;1808623;78;21196;-76
2021/03/08 10:28:05;;;;;;;7.10;2.05;;;;;;;5.67;37.13;98823.72;1873711;76;23131;-76
2021/03/08 10:30:34;;;;;;;4.12;1.85;;;;;;;5.67;37.13;98823.72;1841713;77;20896;-75
2021/03/08 10:33:07;;;;;;;4.62;2.05;;;;;;;5.11;37.80;98817.37;1841723;78;21824;-75
2021/03/08 10:35:47;;;;;;;4.60;1.10;;;;;;;4.84;38.83;98813.98;1841664;78;20920;-75
2021/03/08 10:38:26;;;;;;;4.05;2.10;;;;;;;4.93;39.87;98823.09;1811219;78;21073;-75
2021/03/08 10:40:56;;;;;;;4.42;1.72;;;;;;;5.13;41.50;98827.40;1826158;77;21511;-75
2021/03/08 10:43:24;;;;;;;3.80;1.60;;;;;;;5.88;39.71;98831.18;1808709;79;20924;-75
2021/03/08 10:45:52;;;;;;;1.70;0.82;;;;;;;5.88;39.71;98831.18;1807661;79;21193;-75
2021/03/08 10:48:20;;;;;;;1.80;0.60;;;;;;;6.11;37.21;98823.14;1808181;78;21570;-75
2021/03/08 10:50:52;;;;;;;2.35;1.25;;;;;;;6.16;37.57;98826.56;1808627;79;21000;-75
2021/03/08 10:53:23;;;;;;;2.40;1.17;;;;;;;6.31;34.75;98823.27;1804786;79;21487;-75
2021/03/08 10:55:52;;;;;;;2.35;0.90;;;;;;;6.54;34.92;98824.92;1808714;79;21015;-75
2021/03/08 10:58:35;;;;;;;4.58;1.50;;;;;;;6.74;35.26;98828.56;1808634;79;21359;-75
2021/03/08 11:01:08;;;;;;;4.45;1.75;;;;;;;6.59;33.43;98822.08;1808553;79;20893;-74
2021/03/08 11:03:39;;;;;;;2.98;1.40;;;;;;;5.78;33.53;98842.27;1808640;79;21007;-74
2021/03/08 11:06:09;;;;;;;7.92;3.30;;;;;;;5.20;35.67;98838.68;1808643;79;21050;-74
2021/03/08 11:08:40;;;;;;;8.70;2.75;;;;;;;4.90;35.90;98829.67;1804611;79;20987;-75
2021/03/08 11:11:22;;;;;;;3.52;1.52;;;;;;;4.77;37.25;98831.78;1808618;79;21325;-74
2021/03/08 11:13:50;;;;;;;3.05;1.40;;;;;;;4.74;36.35;98832.37;1808568;78;20936;-74
2021/03/08 11:16:20;;;;;;;3.62;1.35;;;;;;;4.77;37.08;98824.98;1808663;79;21557;-74
2021/03/08 11:18:47;;;;;;;1.95;1.05;;;;;;;4.79;37.61;98824.13;1808658;79;21158;-75
2021/03/08 11:21:33;;;;;;;2.05;0.80;;;;;;;5.05;36.69;98815.83;1808535;79;20885;-75
2021/03/08 11:24:21;;;;;;;2.37;1.05;;;;;;;4.90;36.09;98791.60;1808578;79;21428;-74
2021/03/08 11:27:21;;;;;;;5.33;1.55;;;;;;;3.93;38.28;98835.66;1808545;79;20991;-74
2021/03/08 11:30:03;;;;;;;4.12;1.98;;;;;;;3.93;38.28;98835.66;1808686;79;21112;-74
2021/03/08 11:32:31;;;;;;;9.23;2.20;;;;;;;3.61;38.36;98834.91;1808733;79;20936;-74
2021/03/08 11:35:01;;;;;;;4.37;1.95;;;;;;;3.52;38.31;98835.27;1805232;79;20948;-74
2021/03/08 11:37:30;;;;;;;5.67;1.90;;;;;;;3.80;38.78;98830.91;1808530;78;21306;-74
2021/03/08 11:40:01;;;;;;;4.40;1.80;;;;;;;4.72;36.60;98835.37;1807895;78;20972;-74
2021/03/08 11:42:29;;;;;;;3.35;1.52;;;;;;;4.72;36.60;98835.37;1808003;79;20952;-74
2021/03/08 11:44:57;;;;;;;3.90;1.50;;;;;;;4.80;37.01;98825.75;1807979;79;22177;-74
2021/03/08 11:47:24;;;;;;;5.97;2.58;;;;;;;4.78;37.21;98827.95;1807971;79;20916;-75
2021/03/08 11:49:54;;;;;;;2.20;0.98;;;;;;;4.59;37.22;98830.16;1808078;79;22265;-75
2021/03/08 11:52:21;;;;;;;4.08;1.27;;;;;;;4.32;37.22;98838.14;1754730;79;21003;-75
2021/03/08 11:54:48;;;;;;;4.45;1.40;;;;;;;3.87;38.02;98835.45;1808038;78;21578;-75
2021/03/08 11:57:16;;;;;;;2.65;1.10;;;;;;;3.78;39.53;98845.33;1807928;79;20955;-75